TOURFACTS.DK  
Stats and Facts from Tour de France.

Tour de France 2019 starts in 348 days
  Riders   Stages   Teams   Summits   Yearly  


 
Search by year

After 2018 - Stage 14:
 15000 starters.
  5163 different riders.
  639 teams.
  2246 stages.
  456 restdays.
  441957.60 km.
  5678 abandonnees.


Top 3
GC
Christopher Froome86:20:55
Rigoberto Urán86:21:49
Romain Bardet86:23:15
Climb
Warren Barguil169 pt.
Primoz Roglic80 pt.
Thomas De Gendt64 pt.
Sprint
Michael Matthews359 pt.
André Greipel234 pt.
Edvald Boasson Hagen220 pt.
Youth
Simon Yates86:27:09
Louis Meintjes86:29:15
Emanuel Buchmann86:54:16
Facts from Tour de France 1990
  |   Stages.  |   Stage winners.  |   Days in yellow  |   Average speed.  |   Route.  |   Teams.  |   All riders.  |   Rookies.  |  

  |   Withdrawls.  |   GC.  |   Polka  |   Green  |   White  |   Summits. (In tour)  |   Miscellaneous.  |  

Stage 15 on July 16th. 1990
         Owning:    Claudio Chiappucci    
Pick a stage:  Pro 1 2 3 4 5 6 7 8 9 10 11 12 13 14 15 16 17 18 19 20 21
From: Millau    To: RevelDist:170.00 km.
Cat: 4Côte de TierguesFRAThierry Claveyrolat
5 points
 
Cat: 2Col de SieFRAThierry Claveyrolat
20 points
 
Cat: 3Côte du Mas Bel AirFRAThierry Claveyrolat
10 points
 
Cat: 3Côte de Saint FerréolFRACharly Mottet
10 points
 

Average speed for all riders in stage:  39,336 km./hr.
    Place:Name:Team:Time:Km/h:
FRACharly MottetFRAR.M.O.-Mavic-Liberia04:13:56  +  00:00:00=40,168 
ITAGuiseppe CalcaterraITAChateau d'Ax04:15:58  +  00:02:02=39,849 
URSViatcheslav EkimovNLDPanasonic-Sportlife04:15:58  +  00:02:02=39,849 
4 NEDEdwig Van HooydonckNLDBuckler04:15:58  +  00:02:02=39,849 
5 FRAThierry ClaveyrolatFRAR.M.O.-Mavic-Liberia04:15:58  +  00:02:02=39,849 
6 ITADavide CassaniITAAriostea04:15:58  +  00:02:02=39,849 
7 NORAtle KvålsvollFRAZ-Peugeot04:15:58  +  00:02:02=39,849 
8 FRALuc LeblancFRACastorama-Raleigh04:15:58  +  00:02:02=39,849 
9 COLOscar VargasCOLRyalcao-Postobon04:15:58  +  00:02:02=39,849 
10 FRABruno CornilletFRAZ-Peugeot04:15:58  +  00:02:02=39,849 
11 FRAJean-Claude ColottiFRAR.M.O.-Mavic-Liberia04:16:26  +  00:02:30=39,776 
12 BELPeter De ClercqBELLotto-Superclub04:16:27  +  00:02:31=39,774 
13 ITAMassimo GhirottoITACarrera Jeans-Vagabond04:16:27  +  00:02:31=39,774 
14 ESPMarino MonjeESPBanesto04:16:27  +  00:02:31=39,774 
15 FRAPascal SimonFRACastorama-Raleigh04:16:27  +  00:02:31=39,774 
16 ESPEduardo ChozasESPO.N.C.E.04:16:27  +  00:02:31=39,774 
17 IRLStephen RocheBELHistor-Sigma04:16:31  +  00:02:35=39,763 
18 URSDjamolidine AbduzhaparovITAAlfa Lum04:17:11  +  00:03:15=39,660 
19 AUSStephen HodgeESPO.N.C.E.04:17:50  +  00:03:54=39,560 
20 BELJohan MuseeuwBELLotto-Superclub04:18:44  +  00:04:48=39,423 
21 URSDimitri KonychevITAAlfa Lum04:18:44  +  00:04:48=39,423 
22 ITAClaudio ChiappucciITACarrera Jeans-Vagabond04:18:44  +  00:04:48=39,423 
23 DENSøren LilholtBELHistor-Sigma04:18:44  +  00:04:48=39,423 
24 IRLSean KellyNLDPDM-Concorde04:18:44  +  00:04:48=39,423 
25 ITAValerio PivaITAAriostea04:18:44  +  00:04:48=39,423 
26 FRAPascal LinoFRAR.M.O.-Mavic-Liberia04:18:44  +  00:04:48=39,423 
27 BELRudy DhaenensNLDPDM-Concorde04:18:44  +  00:04:48=39,423 
28 SUIJörg MüllerNLDTVM04:18:44  +  00:04:48=39,423 
29 ESPPello RuizESPO.N.C.E.04:18:44  +  00:04:48=39,423 
30 COLPablo HernandezCOLRyalcao-Postobon04:18:44  +  00:04:48=39,423 
31 FRAGilles DelionCHEHelvetia-La Suisse04:18:44  +  00:04:48=39,423 
32 BELPeter RoesBELLotto-Superclub04:18:44  +  00:04:48=39,423 
33 ESPMiguel IndurainESPBanesto04:18:47  +  00:04:51=39,415 
34 BELPaul HaghedoorenBELHistor-Sigma04:18:47  +  00:04:51=39,415 
35 COLReynel MontoyaCOLRyalcao-Postobon04:18:47  +  00:04:51=39,415 
36 USAGreg LeMondFRAZ-Peugeot04:18:47  +  00:04:51=39,415 
37 COLWilliam PalacioCOLRyalcao-Postobon04:18:47  +  00:04:51=39,415 
38 ESPRaúl AlcaláNLDPDM-Concorde04:18:47  +  00:04:51=39,415 
39 NEDErik BreukinkNLDPDM-Concorde04:18:47  +  00:04:51=39,415 
40 FRAVincent BarteauFRACastorama-Raleigh04:18:47  +  00:04:51=39,415 
41 ENGPhil AndersonNLDTVM04:18:47  +  00:04:51=39,415 
42 ITAGuido BontempiITACarrera Jeans-Vagabond04:18:47  +  00:04:51=39,415 
43 BELClaude CriquielionBELLotto-Superclub04:18:47  +  00:04:51=39,415 
44 FRARonan PensecFRAZ-Peugeot04:18:47  +  00:04:51=39,415 
45 ITAMarcello SiboniITAAriostea04:18:47  +  00:04:51=39,415 
46 SUIHans-Rüdi MärkiCHEHelvetia-La Suisse04:18:47  +  00:04:51=39,415 
47 NEDGerrit De VriesNLDBuckler04:18:47  +  00:04:51=39,415 
48 SUIGianni BugnoITAChateau d'Ax04:18:47  +  00:04:51=39,415 
49 DENBjarne RiisFRACastorama-Raleigh04:18:47  +  00:04:51=39,415 
50 ESPHerminio ZabalaESPO.N.C.E.04:18:47  +  00:04:51=39,415 
51 ESPPedro DelgadoESPBanesto04:18:47  +  00:04:51=39,415 
52 ESPMarino LejarretaESPO.N.C.E.04:18:47  +  00:04:51=39,415 
53 BELWilfried PeetersBELHistor-Sigma04:18:47  +  00:04:51=39,415 
54 USAAndy HampstenUSA7-Eleven-Hoonved04:18:47  +  00:04:51=39,415 
55 ESPVicente RidauraFRASeur04:18:47  +  00:04:51=39,415 
56 FRAThierry LaurentFRAR.M.O.-Mavic-Liberia04:18:47  +  00:04:51=39,415 
57 DDRUwe RaabNLDPDM-Concorde04:18:47  +  00:04:51=39,415 
58 FRAFabrice PhilipotFRACastorama-Raleigh04:18:47  +  00:04:51=39,415 
59 DENBrian HolmBELHistor-Sigma04:18:47  +  00:04:51=39,415 
60 COLWilliam PulidoCOLRyalcao-Postobon04:18:47  +  00:04:51=39,415 
61 ITAAlessandro GiannelliITACarrera Jeans-Vagabond04:18:47  +  00:04:51=39,415 
62 NORDag Otto LauritzenUSA7-Eleven-Hoonved04:18:47  +  00:04:51=39,415 
63 FRAÉric BoyerFRAZ-Peugeot04:18:47  +  00:04:51=39,415 
64 ESPMiguel Angel MartinezESPO.N.C.E.04:18:47  +  00:04:51=39,415 
65 DDRMario KummerITAChateau d'Ax04:18:47  +  00:04:51=39,415 
66 BELJohan BruyneelBELLotto-Superclub04:18:47  +  00:04:51=39,415 
67 URSAlexandre TrubineITAAlfa Lum04:18:47  +  00:04:51=39,415 
68 ITAAlberto ElliITAAriostea04:18:47  +  00:04:51=39,415 
69 ESPJosé UreaFRASeur04:18:47  +  00:04:51=39,415 
70 BELWillem Van EyndeBELLotto-Superclub04:18:47  +  00:04:51=39,415 
71 SUIBeat BreuCHEWeinmann-La Suisse-S.M.M. Uste..04:18:47  +  00:04:51=39,415 
72 CANSteve BauerUSA7-Eleven-Hoonved04:18:47  +  00:04:51=39,415 
73 BELPatrick VerschuerenBELLotto-Superclub04:18:47  +  00:04:51=39,415 
74 FRAChristian ChaubetNLDToshiba04:18:47  +  00:04:51=39,415 
75 FRAJean-Claude BagotFRAR.M.O.-Mavic-Liberia04:18:47  +  00:04:51=39,415 
76 ITABruno CenghialtaITAAriostea04:18:47  +  00:04:51=39,415 
77 ITARoberto ContiITAAriostea04:18:47  +  00:04:51=39,415 
78 COLJuan CastilloCOLRyalcao-Postobon04:18:47  +  00:04:51=39,415 
79 URSPiotr UgrumovITAAlfa Lum04:18:47  +  00:04:51=39,415 
80 BELMichel DerniesCHEWeinmann-La Suisse-S.M.M. Uste..04:18:47  +  00:04:51=39,415 
81 BELMichel VermoteFRAR.M.O.-Mavic-Liberia04:18:47  +  00:04:51=39,415 
82 COLNéstor MoraESPKelme-Ibexpress04:18:47  +  00:04:51=39,415 
83 COLAlvaro MejiaCOLRyalcao-Postobon04:18:47  +  00:04:51=39,415 
84 PORJosé FerreiraFRASeur04:18:47  +  00:04:51=39,415 
85 COLAbelardo RondonESPBanesto04:18:47  +  00:04:51=39,415 
86 ITARoberto GusmeroliITAChateau d'Ax04:18:47  +  00:04:51=39,415 
87 BELGuy NulensNLDPanasonic-Sportlife04:18:47  +  00:04:51=39,415 
88 FRAJerôme SimonFRAZ-Peugeot04:18:47  +  00:04:51=39,415 
89 ESPJesus RodriguezESPBanesto04:18:47  +  00:04:51=39,415 
90 ESPPablo MorenoFRASeur04:18:47  +  00:04:51=39,415 
91 BELMarc SergeantNLDPanasonic-Sportlife04:18:47  +  00:04:51=39,415 
92 COLNelson RodriguezESPKelme-Ibexpress04:18:47  +  00:04:51=39,415 
93 NEDFrans MaassenNLDBuckler04:18:47  +  00:04:51=39,415 
94 NEDSteven RooksNLDPanasonic-Sportlife04:18:47  +  00:04:51=39,415 
95 SUINiki RüttimannCHEHelvetia-La Suisse04:18:47  +  00:04:51=39,415 
96 USAAndrew BishopUSA7-Eleven-Hoonved04:18:47  +  00:04:51=39,415 
97 BELPatrick RobeetCHEWeinmann-La Suisse-S.M.M. Uste..04:18:47  +  00:04:51=39,415 
98 FRAJean-Claude LeclercqCHEHelvetia-La Suisse04:18:47  +  00:04:51=39,415 
99 FRADominique ArnaudESPBanesto04:18:47  +  00:04:51=39,415 
100 GERAndreas KappesNLDToshiba04:18:47  +  00:04:51=39,415 
101 COLFabio Parra PintoESPKelme-Ibexpress04:18:47  +  00:04:51=39,415 
102 FRAPascal LanceNLDToshiba04:18:47  +  00:04:51=39,415 
103 DENTony RomingerITAChateau d'Ax04:18:47  +  00:04:51=39,415 
104 NEDPatrick TolhoekNLDBuckler04:18:47  +  00:04:51=39,415 
105 ESPAntonio DiasESPKelme-Ibexpress04:18:47  +  00:04:51=39,415 
106 FRALaurent PillonBELHistor-Sigma04:18:47  +  00:04:51=39,415 
107 SUIErich MächlerITACarrera Jeans-Vagabond04:18:47  +  00:04:51=39,415 
108 PORAcacio da SilvaITACarrera Jeans-Vagabond04:18:47  +  00:04:51=39,415 
109 DDRJan SchurITAChateau d'Ax04:18:47  +  00:04:51=39,415 
110 COLGerardo MoncadaCOLRyalcao-Postobon04:18:47  +  00:04:51=39,415 
111 ITAAlberto VolpiITAChateau d'Ax04:18:47  +  00:04:51=39,415 
112 FRAPhilippe LouviotNLDToshiba04:18:47  +  00:04:51=39,415 
113 ESPAnselmo FuerteESPO.N.C.E.04:18:47  +  00:04:51=39,415 
114 FRARoland Le ClercNLDToshiba04:18:47  +  00:04:51=39,415 
115 ESPMelchor MauriESPO.N.C.E.04:18:47  +  00:04:51=39,415 
116 NEDMaarten DucrotNLDTVM04:18:47  +  00:04:51=39,415 
117 DDROlaf LudwigNLDPanasonic-Sportlife04:18:47  +  00:04:51=39,415 
118 ITAAdriano BaffiITAAriostea04:18:47  +  00:04:51=39,415 
119 SUIMauro GianettiCHEHelvetia-La Suisse04:18:47  +  00:04:51=39,415 
120 ITAGiancarlo PeriniITACarrera Jeans-Vagabond04:18:47  +  00:04:51=39,415 
121 ITAMauro-Antonio SantaromitaITAChateau d'Ax04:18:47  +  00:04:51=39,415 
122 FRAGilbert Duclos-LassalleFRAZ-Peugeot04:19:28  +  00:05:32=39,311 
123 ESPJuan MartinezESPBanesto04:19:28  +  00:05:32=39,311 
124 COLCarlos JaramilloCOLRyalcao-Postobon04:19:28  +  00:05:32=39,311 
125 NEDAdri Van Der PoelCHEWeinmann-La Suisse-S.M.M. Uste..04:20:36  +  00:06:40=39,140 
126 NEDHenri MandersCHEHelvetia-La Suisse04:20:36  +  00:06:40=39,140 
127 ITAGiuseppe SaronniESPKelme-Ibexpress04:20:36  +  00:06:40=39,140 
128 URSVasily ZhdanovITAAlfa Lum04:20:36  +  00:06:40=39,140 
129 ESPLuis LukinESPBanesto04:20:36  +  00:06:40=39,140 
130 ENGMaximilian SciandriITACarrera Jeans-Vagabond04:20:36  +  00:06:40=39,140 
131 NEDJan SiemonsNLDTVM04:20:36  +  00:06:40=39,140 
132 NEDJos Van AertNLDPDM-Concorde04:20:36  +  00:06:40=39,140 
133 FRAFrédéric BrunFRAR.M.O.-Mavic-Liberia04:20:36  +  00:06:40=39,140 
134 ITAGiovanni FidanzaITAChateau d'Ax04:20:36  +  00:06:40=39,140 
135 SUIThomas WegmüllerCHEWeinmann-La Suisse-S.M.M. Uste..04:20:36  +  00:06:40=39,140 
136 ITARodolfo MassiITAAriostea04:20:36  +  00:06:40=39,140 
137 BELCarlo BomansCHEWeinmann-La Suisse-S.M.M. Uste..04:20:36  +  00:06:40=39,140 
138 NEDToine PoelsNLDBuckler04:20:36  +  00:06:40=39,140 
139 BELJos HaexBELLotto-Superclub04:20:36  +  00:06:40=39,140 
140 ENGSean YatesUSA7-Eleven-Hoonved04:20:36  +  00:06:40=39,140 
141 NEDJelle NijdamNLDBuckler04:20:36  +  00:06:40=39,140 
142 BELEric Van LanckerNLDPanasonic-Sportlife04:20:36  +  00:06:40=39,140 
143 USANorman AlvisUSA7-Eleven-Hoonved04:20:36  +  00:06:40=39,140 
144 NEDJean-Paul van PoppelNLDPanasonic-Sportlife04:20:36  +  00:06:40=39,140 
145 BELJan GoessensCHEWeinmann-La Suisse-S.M.M. Uste..04:20:36  +  00:06:40=39,140 
146 BELHendrik RedantBELLotto-Superclub04:20:36  +  00:06:40=39,140 
147 SUIKurt SteinmannCHEWeinmann-La Suisse-S.M.M. Uste..04:20:36  +  00:06:40=39,140 
148 USARonald KiefelUSA7-Eleven-Hoonved04:20:36  +  00:06:40=39,140 
149 USADavis PhinneyUSA7-Eleven-Hoonved04:20:36  +  00:06:40=39,140 
150 FRAThierry MarieFRACastorama-Raleigh04:21:05  +  00:07:09=39,068 
151 NEDMartin SchalkersNLDTVM04:22:08  +  00:08:12=38,911 
152 ESPJesús RosadoESPKelme-Ibexpress04:22:08  +  00:08:12=38,911 
153 FRALaurent BiondiBELHistor-Sigma04:22:08  +  00:08:12=38,911 
154 NEDGerrit SolleveldNLDBuckler04:22:08  +  00:08:12=38,911 
155 NEDGert JakobsNLDPDM-Concorde04:22:08  +  00:08:12=38,911 
156 ESPAntonio EspejoESPKelme-Ibexpress04:22:54  +  00:08:58=38,798 
157 URSNikolai GolovatenkoITAAlfa Lum04:22:54  +  00:08:58=38,798 
158 USABob RollUSA7-Eleven-Hoonved04:22:54  +  00:08:58=38,798 
159 FRADenis RouxNLDToshiba04:33:18  +  00:19:22=37,322 
160 FRAFrançois LemarchandFRAZ-Peugeot04:38:59  +  00:25:03=36,561 
161 SUIGuido WinterbergCHEHelvetia-La Suisse04:38:59  +  00:25:03=36,561 

Withdrawls: 3
 
Rider
Team
Reason
7  SCORobert MillarFRAZ-PeugeotDid not finish
214  URSIvan IvanovITAAlfa LumDid not start
216  URSAsiat SaitovITAAlfa LumDid not finish

Todays birthdays.

1877  Antoine Perrichon
1878  Auguste Berthault
1911  Théo Herckenrath
1924  Carlo Lafranchi
1931  Armand Di Caro
1937  Jean-Claude Lebaube
1951  Giovanni Battaglin
1961  Pascal Jules
1962  Jean-Claude Leclercq
1976  Janek Tombak
1978  Francisco Pérez
1983  Dries Devenyns




Visits: